This is the latest recevied weather packets stored in our database for station/object N8ASV. If no packets are shown the sender has not sent any weather packets the latest 10 day(s).
| Time | Temp. | Humidity | Pressure | Rain* | Wind** | Luminosity | Snow |
|---|---|---|---|---|---|---|---|
| 1777964416 | 17.78° C | 68% | 1004.7 hPa | 0 mm | - | - | - |
| 1777963216 | 18.33° C | 63% | 1004.6 hPa | 0 mm | - | - | - |
| 1777962016 | 18.89° C | 62% | 1004.4 hPa | 0 mm | - | - | - |
| 1777961416 | 18.89° C | 61% | 1004.4 hPa | 0 mm | - | - | - |
| 1777958416 | 19.44° C | 62% | 1003.7 hPa | 0 mm | - | - | - |
| 1777957816 | 19.44° C | 62% | 1003.6 hPa | 0 mm | - | - | - |
| 1777956616 | 18.89° C | 64% | 1003.8 hPa | 0 mm | - | - | - |
| 1777953017 | 19.44° C | 62% | 1004.3 hPa | 0 mm | - | - | - |
| 1777936216 | 23.89° C | 46% | 1003.9 hPa | 0 mm | - | - | - |
| 1777930216 | 23.89° C | 50% | 1004.4 hPa | 0 mm | - | - | - |
| 1777928717 | 23.89° C | 50% | 1004.9 hPa | 0 mm | - | - | - |
| 1777921516 | 20.56° C | 65% | 1006.6 hPa | 0 mm | - | - | - |
| 1777912516 | 20° C | 61% | 1006.6 hPa | 0 mm | - | - | - |
| 1777911316 | 19.44° C | 65% | 1006.7 hPa | 0 mm | - | - | - |
| 1777910118 | 19.44° C | 64% | 1007 hPa | 0 mm | - | - | - |
| 1777907717 | 18.89° C | 64% | 1007.1 hPa | 0 mm | - | - | - |
| 1777907117 | 17.78° C | 68% | 1007.2 hPa | 0 mm | - | - | - |
| 1777899917 | 13.33° C | 74% | 1007.7 hPa | 0 mm | - | - | - |
| 1777898717 | 12.78° C | 74% | 1007.5 hPa | 0 mm | - | - | - |
| 1777893917 | 11.67° C | 74% | 1007.5 hPa | 0 mm | - | - | - |
| 1777891516 | 11.11° C | 73% | 1007.5 hPa | 0 mm | - | - | - |
| 1777880716 | 9.44° C | 74% | 1008.8 hPa | 0 mm | - | - | - |
| 1777879516 | 9.44° C | 75% | 1008.8 hPa | 0 mm | - | - | - |
| 1777878916 | 9.44° C | 75% | 1008.9 hPa | 0 mm | - | - | - |
| 1777873538 | 9.44° C | 76% | 1010 hPa | 0 mm | - | - | - |
* Rain latest hour (hover to see other rain measurements)
** Current wind speed in m/s (hover to see current wind gust speed)